sensor_id;sensor_type;location;lat;lon;timestamp;pressure;altitude;pressure_sealevel;temperature;humidity
40570;BME280;26270;34.428;-119.710;2023-03-05T00:00:52;101095.70;;;17.77;41.30
40570;BME280;26270;34.428;-119.710;2023-03-05T00:03:20;101094.90;;;17.78;41.67
40570;BME280;26270;34.428;-119.710;2023-03-05T00:05:54;101100.00;;;17.49;41.33
40570;BME280;26270;34.428;-119.710;2023-03-05T00:08:23;101095.23;;;17.27;41.65
40570;BME280;26270;34.428;-119.710;2023-03-05T00:10:56;101093.08;;;17.16;42.23
40570;BME280;26270;34.428;-119.710;2023-03-05T00:13:25;101094.02;;;16.99;41.31
40570;BME280;26270;34.428;-119.710;2023-03-05T00:15:53;101089.49;;;16.83;40.46
40570;BME280;26270;34.428;-119.710;2023-03-05T00:18:22;101084.79;;;16.54;41.55
40570;BME280;26270;34.428;-119.710;2023-03-05T00:20:51;101087.82;;;16.22;42.44
40570;BME280;26270;34.428;-119.710;2023-03-05T00:23:19;101085.29;;;16.17;43.10
40570;BME280;26270;34.428;-119.710;2023-03-05T00:25:47;101090.13;;;16.23;43.69
40570;BME280;26270;34.428;-119.710;2023-03-05T00:28:15;101094.37;;;15.89;44.22
40570;BME280;26270;34.428;-119.710;2023-03-05T00:30:44;101098.36;;;15.94;43.92
40570;BME280;26270;34.428;-119.710;2023-03-05T00:33:13;101102.49;;;15.88;44.52
40570;BME280;26270;34.428;-119.710;2023-03-05T00:35:44;101102.72;;;16.10;44.71
40570;BME280;26270;34.428;-119.710;2023-03-05T00:38:13;101104.35;;;16.13;44.09
40570;BME280;26270;34.428;-119.710;2023-03-05T00:40:41;101102.48;;;16.49;42.47
40570;BME280;26270;34.428;-119.710;2023-03-05T00:43:10;101104.41;;;16.31;42.68
40570;BME280;26270;34.428;-119.710;2023-03-05T00:45:38;101107.09;;;16.25;41.82
40570;BME280;26270;34.428;-119.710;2023-03-05T00:48:06;101106.54;;;16.31;40.58
40570;BME280;26270;34.428;-119.710;2023-03-05T00:50:34;101109.03;;;16.07;40.75
40570;BME280;26270;34.428;-119.710;2023-03-05T00:53:03;101112.47;;;15.89;42.17
40570;BME280;26270;34.428;-119.710;2023-03-05T00:55:31;101116.24;;;15.92;42.18
40570;BME280;26270;34.428;-119.710;2023-03-05T00:57:59;101120.13;;;15.69;42.36
40570;BME280;26270;34.428;-119.710;2023-03-05T01:00:27;101114.68;;;15.55;44.26
40570;BME280;26270;34.428;-119.710;2023-03-05T01:02:56;101115.01;;;15.41;44.64
40570;BME280;26270;34.428;-119.710;2023-03-05T01:05:24;101115.28;;;15.10;45.13
40570;BME280;26270;34.428;-119.710;2023-03-05T01:07:53;101114.00;;;15.19;45.49
40570;BME280;26270;34.428;-119.710;2023-03-05T01:10:22;101112.49;;;14.96;45.78
40570;BME280;26270;34.428;-119.710;2023-03-05T01:12:51;101109.24;;;14.84;46.38
40570;BME280;26270;34.428;-119.710;2023-03-05T01:15:19;101116.55;;;14.79;46.79
40570;BME280;26270;34.428;-119.710;2023-03-05T01:17:47;101121.60;;;14.80;47.43
40570;BME280;26270;34.428;-119.710;2023-03-05T01:20:19;101118.64;;;14.64;47.93
40570;BME280;26270;34.428;-119.710;2023-03-05T01:22:48;101125.82;;;14.66;47.43
40570;BME280;26270;34.428;-119.710;2023-03-05T01:25:17;101125.93;;;14.46;48.02
40570;BME280;26270;34.428;-119.710;2023-03-05T01:27:46;101125.22;;;14.33;48.27
40570;BME280;26270;34.428;-119.710;2023-03-05T01:30:15;101126.76;;;14.08;49.16
40570;BME280;26270;34.428;-119.710;2023-03-05T01:32:43;101132.49;;;14.18;49.78
40570;BME280;26270;34.428;-119.710;2023-03-05T01:35:17;101132.67;;;13.96;50.24
40570;BME280;26270;34.428;-119.710;2023-03-05T01:37:46;101138.40;;;13.79;50.77
40570;BME280;26270;34.428;-119.710;2023-03-05T01:40:23;101135.88;;;13.83;50.62
40570;BME280;26270;34.428;-119.710;2023-03-05T01:42:58;101135.96;;;13.73;51.49
40570;BME280;26270;34.428;-119.710;2023-03-05T01:45:30;101135.78;;;13.64;51.64
40570;BME280;26270;34.428;-119.710;2023-03-05T01:47:58;101135.70;;;13.58;52.10
40570;BME280;26270;34.428;-119.710;2023-03-05T01:50:27;101137.82;;;13.48;52.66
40570;BME280;26270;34.428;-119.710;2023-03-05T01:53:00;101138.10;;;13.33;52.74
40570;BME280;26270;34.428;-119.710;2023-03-05T01:55:31;101144.89;;;13.43;53.39
40570;BME280;26270;34.428;-119.710;2023-03-05T01:58:05;101141.80;;;13.27;54.05
40570;BME280;26270;34.428;-119.710;2023-03-05T02:00:38;101144.98;;;13.31;54.31
40570;BME280;26270;34.428;-119.710;2023-03-05T02:03:09;101150.53;;;13.30;54.28
40570;BME280;26270;34.428;-119.710;2023-03-05T02:05:40;101151.99;;;13.35;54.47
40570;BME280;26270;34.428;-119.710;2023-03-05T02:08:11;101153.59;;;13.30;54.96
40570;BME280;26270;34.428;-119.710;2023-03-05T02:10:42;101155.77;;;13.31;55.13
40570;BME280;26270;34.428;-119.710;2023-03-05T02:13:14;101161.62;;;13.24;55.77
40570;BME280;26270;34.428;-119.710;2023-03-05T02:15:44;101158.59;;;13.26;55.61
40570;BME280;26270;34.428;-119.710;2023-03-05T02:18:13;101165.90;;;13.20;55.88
40570;BME280;26270;34.428;-119.710;2023-03-05T02:20:45;101173.67;;;13.22;56.17
40570;BME280;26270;34.428;-119.710;2023-03-05T02:23:15;101181.09;;;13.24;56.20
40570;BME280;26270;34.428;-119.710;2023-03-05T02:25:44;101182.58;;;13.24;57.03
40570;BME280;26270;34.428;-119.710;2023-03-05T02:28:16;101182.36;;;13.09;56.96
40570;BME280;26270;34.428;-119.710;2023-03-05T02:30:45;101186.32;;;12.93;57.65
40570;BME280;26270;34.428;-119.710;2023-03-05T02:33:15;101187.62;;;13.08;57.59
40570;BME280;26270;34.428;-119.710;2023-03-05T02:35:45;101185.34;;;13.00;58.08
40570;BME280;26270;34.428;-119.710;2023-03-05T02:38:15;101187.33;;;12.93;58.23
40570;BME280;26270;34.428;-119.710;2023-03-05T02:40:45;101187.04;;;12.90;58.47
40570;BME280;26270;34.428;-119.710;2023-03-05T02:43:13;101187.15;;;12.81;58.46
40570;BME280;26270;34.428;-119.710;2023-03-05T02:45:42;101186.79;;;12.94;58.54
40570;BME280;26270;34.428;-119.710;2023-03-05T02:48:10;101186.74;;;12.83;58.72
40570;BME280;26270;34.428;-119.710;2023-03-05T02:50:39;101186.83;;;12.79;58.12
40570;BME280;26270;34.428;-119.710;2023-03-05T02:53:08;101188.50;;;12.81;58.04
40570;BME280;26270;34.428;-119.710;2023-03-05T02:55:36;101188.49;;;12.78;57.70
40570;BME280;26270;34.428;-119.710;2023-03-05T02:58:04;101191.05;;;12.75;56.42
40570;BME280;26270;34.428;-119.710;2023-03-05T03:00:33;101187.81;;;12.80;55.18
40570;BME280;26270;34.428;-119.710;2023-03-05T03:03:01;101186.86;;;12.78;53.80
40570;BME280;26270;34.428;-119.710;2023-03-05T03:05:30;101189.03;;;12.68;50.65
40570;BME280;26270;34.428;-119.710;2023-03-05T03:07:58;101189.32;;;12.77;50.64
40570;BME280;26270;34.428;-119.710;2023-03-05T03:10:27;101189.83;;;12.77;47.98
40570;BME280;26270;34.428;-119.710;2023-03-05T03:12:55;101192.59;;;12.62;47.40
40570;BME280;26270;34.428;-119.710;2023-03-05T03:15:24;101196.61;;;12.66;47.08
40570;BME280;26270;34.428;-119.710;2023-03-05T03:17:53;101206.05;;;12.50;47.70
40570;BME280;26270;34.428;-119.710;2023-03-05T03:20:22;101208.67;;;12.51;47.62
40570;BME280;26270;34.428;-119.710;2023-03-05T03:22:50;101206.61;;;12.61;47.41
40570;BME280;26270;34.428;-119.710;2023-03-05T03:25:20;101206.96;;;12.52;47.67
40570;BME280;26270;34.428;-119.710;2023-03-05T03:27:49;101209.62;;;12.45;47.59
40570;BME280;26270;34.428;-119.710;2023-03-05T03:30:18;101210.31;;;12.44;48.30
40570;BME280;26270;34.428;-119.710;2023-03-05T03:32:47;101212.29;;;12.52;47.90
40570;BME280;26270;34.428;-119.710;2023-03-05T03:35:15;101215.31;;;12.56;48.24
40570;BME280;26270;34.428;-119.710;2023-03-05T03:37:43;101218.14;;;12.53;48.29
40570;BME280;26270;34.428;-119.710;2023-03-05T03:40:12;101228.36;;;12.40;48.82
40570;BME280;26270;34.428;-119.710;2023-03-05T03:42:40;101235.37;;;12.41;48.24
40570;BME280;26270;34.428;-119.710;2023-03-05T03:45:09;101242.22;;;12.47;48.86
40570;BME280;26270;34.428;-119.710;2023-03-05T03:47:38;101245.47;;;12.30;49.26
40570;BME280;26270;34.428;-119.710;2023-03-05T03:50:08;101247.36;;;12.35;49.33
40570;BME280;26270;34.428;-119.710;2023-03-05T03:52:36;101246.18;;;12.42;48.49
40570;BME280;26270;34.428;-119.710;2023-03-05T03:55:05;101249.49;;;12.37;48.73
40570;BME280;26270;34.428;-119.710;2023-03-05T03:57:35;101252.65;;;12.35;50.00
40570;BME280;26270;34.428;-119.710;2023-03-05T04:00:04;101258.60;;;12.29;49.96
40570;BME280;26270;34.428;-119.710;2023-03-05T04:02:33;101259.30;;;12.26;49.72
40570;BME280;26270;34.428;-119.710;2023-03-05T04:05:02;101256.51;;;12.27;49.19
40570;BME280;26270;34.428;-119.710;2023-03-05T04:07:31;101260.01;;;12.39;48.85
40570;BME280;26270;34.428;-119.710;2023-03-05T04:10:00;101264.20;;;12.31;49.02
40570;BME280;26270;34.428;-119.710;2023-03-05T04:12:28;101271.79;;;12.24;49.66
40570;BME280;26270;34.428;-119.710;2023-03-05T04:14:57;101272.82;;;12.28;49.56
40570;BME280;26270;34.428;-119.710;2023-03-05T04:17:25;101275.47;;;12.17;49.35
40570;BME280;26270;34.428;-119.710;2023-03-05T04:19:54;101273.29;;;12.11;49.85
40570;BME280;26270;34.428;-119.710;2023-03-05T04:22:22;101279.90;;;12.23;49.46
40570;BME280;26270;34.428;-119.710;2023-03-05T04:24:51;101278.78;;;12.03;49.91
40570;BME280;26270;34.428;-119.710;2023-03-05T04:27:19;101283.36;;;12.13;50.42
40570;BME280;26270;34.428;-119.710;2023-03-05T04:29:48;101288.31;;;12.04;51.20
40570;BME280;26270;34.428;-119.710;2023-03-05T04:32:16;101289.05;;;12.02;52.09
40570;BME280;26270;34.428;-119.710;2023-03-05T04:34:45;101290.93;;;11.79;51.93
40570;BME280;26270;34.428;-119.710;2023-03-05T04:37:13;101292.35;;;11.86;51.44
40570;BME280;26270;34.428;-119.710;2023-03-05T04:39:41;101297.66;;;11.84;51.80
40570;BME280;26270;34.428;-119.710;2023-03-05T04:42:10;101302.28;;;11.79;52.25
40570;BME280;26270;34.428;-119.710;2023-03-05T04:44:38;101306.90;;;11.67;52.50
40570;BME280;26270;34.428;-119.710;2023-03-05T04:47:07;101310.66;;;11.71;52.92
40570;BME280;26270;34.428;-119.710;2023-03-05T04:49:35;101307.06;;;11.66;53.48
40570;BME280;26270;34.428;-119.710;2023-03-05T04:52:04;101312.76;;;11.51;53.44
40570;BME280;26270;34.428;-119.710;2023-03-05T04:54:32;101329.68;;;11.63;53.56
40570;BME280;26270;34.428;-119.710;2023-03-05T04:57:01;101335.24;;;11.47;53.01
40570;BME280;26270;34.428;-119.710;2023-03-05T04:59:29;101342.83;;;11.40;53.65
40570;BME280;26270;34.428;-119.710;2023-03-05T05:03:18;101338.96;;;11.14;53.87
40570;BME280;26270;34.428;-119.710;2023-03-05T05:05:54;101345.65;;;11.32;53.70
40570;BME280;26270;34.428;-119.710;2023-03-05T05:08:23;101344.69;;;11.40;54.49
40570;BME280;26270;34.428;-119.710;2023-03-05T05:10:56;101346.82;;;11.41;53.98
40570;BME280;26270;34.428;-119.710;2023-03-05T05:13:26;101343.41;;;11.31;54.37
40570;BME280;26270;34.428;-119.710;2023-03-05T05:15:55;101342.38;;;11.30;54.31
40570;BME280;26270;34.428;-119.710;2023-03-05T05:18:23;101343.10;;;11.36;53.43
40570;BME280;26270;34.428;-119.710;2023-03-05T05:20:52;101343.06;;;11.18;54.41
40570;BME280;26270;34.428;-119.710;2023-03-05T05:23:21;101342.87;;;11.28;54.04
40570;BME280;26270;34.428;-119.710;2023-03-05T05:25:56;101354.79;;;11.44;53.85
40570;BME280;26270;34.428;-119.710;2023-03-05T05:28:25;101357.40;;;11.25;54.29
40570;BME280;26270;34.428;-119.710;2023-03-05T05:30:53;101359.25;;;11.31;54.45
40570;BME280;26270;34.428;-119.710;2023-03-05T05:33:22;101360.31;;;11.01;55.10
40570;BME280;26270;34.428;-119.710;2023-03-05T05:35:51;101353.33;;;10.93;55.29
40570;BME280;26270;34.428;-119.710;2023-03-05T05:38:19;101349.23;;;11.15;55.80
40570;BME280;26270;34.428;-119.710;2023-03-05T05:40:47;101345.01;;;10.96;56.17
40570;BME280;26270;34.428;-119.710;2023-03-05T05:43:15;101343.48;;;10.89;55.77
40570;BME280;26270;34.428;-119.710;2023-03-05T05:45:43;101336.39;;;10.82;56.22
40570;BME280;26270;34.428;-119.710;2023-03-05T05:48:11;101338.14;;;10.76;55.93
40570;BME280;26270;34.428;-119.710;2023-03-05T05:50:39;101340.25;;;10.73;56.66
40570;BME280;26270;34.428;-119.710;2023-03-05T05:53:07;101341.14;;;10.73;56.32
40570;BME280;26270;34.428;-119.710;2023-03-05T05:55:35;101340.58;;;10.65;56.24
40570;BME280;26270;34.428;-119.710;2023-03-05T05:58:06;101344.04;;;10.62;55.92
40570;BME280;26270;34.428;-119.710;2023-03-05T06:00:35;101355.77;;;10.75;55.80
40570;BME280;26270;34.428;-119.710;2023-03-05T06:03:03;101349.62;;;10.73;56.02
40570;BME280;26270;34.428;-119.710;2023-03-05T06:05:31;101342.20;;;10.59;55.88
40570;BME280;26270;34.428;-119.710;2023-03-05T06:07:59;101345.94;;;10.71;55.93
40570;BME280;26270;34.428;-119.710;2023-03-05T06:10:28;101358.82;;;10.61;56.16
40570;BME280;26270;34.428;-119.710;2023-03-05T06:12:56;101360.28;;;10.50;56.64
40570;BME280;26270;34.428;-119.710;2023-03-05T06:15:25;101366.76;;;10.48;56.55
40570;BME280;26270;34.428;-119.710;2023-03-05T06:17:53;101371.46;;;10.57;56.53
40570;BME280;26270;34.428;-119.710;2023-03-05T06:20:21;101376.85;;;10.40;57.13
40570;BME280;26270;34.428;-119.710;2023-03-05T06:22:49;101381.12;;;10.37;57.22
40570;BME280;26270;34.428;-119.710;2023-03-05T06:25:18;101390.27;;;10.24;57.93
40570;BME280;26270;34.428;-119.710;2023-03-05T06:27:47;101390.54;;;10.36;57.33
40570;BME280;26270;34.428;-119.710;2023-03-05T06:30:15;101391.75;;;10.40;58.01
40570;BME280;26270;34.428;-119.710;2023-03-05T06:32:44;101395.98;;;10.10;57.54
40570;BME280;26270;34.428;-119.710;2023-03-05T06:35:13;101392.56;;;10.03;57.90
40570;BME280;26270;34.428;-119.710;2023-03-05T06:37:41;101389.10;;;10.13;57.35
40570;BME280;26270;34.428;-119.710;2023-03-05T06:40:10;101395.85;;;10.10;57.67
40570;BME280;26270;34.428;-119.710;2023-03-05T06:42:39;101391.68;;;9.98;57.25
40570;BME280;26270;34.428;-119.710;2023-03-05T06:45:08;101392.01;;;10.13;57.56
40570;BME280;26270;34.428;-119.710;2023-03-05T06:47:36;101391.48;;;10.12;58.16
40570;BME280;26270;34.428;-119.710;2023-03-05T06:50:05;101390.49;;;10.11;57.48
40570;BME280;26270;34.428;-119.710;2023-03-05T06:52:34;101399.95;;;10.16;57.81
40570;BME280;26270;34.428;-119.710;2023-03-05T06:55:02;101394.98;;;10.00;57.47
40570;BME280;26270;34.428;-119.710;2023-03-05T06:57:30;101393.45;;;10.14;57.38
40570;BME280;26270;34.428;-119.710;2023-03-05T06:59:58;101390.72;;;10.04;57.68
40570;BME280;26270;34.428;-119.710;2023-03-05T07:02:27;101394.68;;;10.21;57.84
40570;BME280;26270;34.428;-119.710;2023-03-05T07:04:55;101385.47;;;10.09;58.17
40570;BME280;26270;34.428;-119.710;2023-03-05T07:07:23;101386.86;;;9.85;58.17
40570;BME280;26270;34.428;-119.710;2023-03-05T07:09:51;101387.35;;;9.98;58.19
40570;BME280;26270;34.428;-119.710;2023-03-05T07:12:19;101391.73;;;10.18;56.89
40570;BME280;26270;34.428;-119.710;2023-03-05T07:14:47;101395.88;;;10.04;57.32
40570;BME280;26270;34.428;-119.710;2023-03-05T07:17:15;101391.82;;;9.72;56.88
40570;BME280;26270;34.428;-119.710;2023-03-05T07:19:43;101388.08;;;9.96;57.30
40570;BME280;26270;34.428;-119.710;2023-03-05T07:22:12;101396.86;;;9.84;57.26
40570;BME280;26270;34.428;-119.710;2023-03-05T07:24:40;101401.62;;;9.83;56.97
40570;BME280;26270;34.428;-119.710;2023-03-05T07:27:08;101407.02;;;9.79;57.73
40570;BME280;26270;34.428;-119.710;2023-03-05T07:29:37;101411.63;;;9.95;57.15
40570;BME280;26270;34.428;-119.710;2023-03-05T07:32:05;101408.17;;;9.97;57.50
40570;BME280;26270;34.428;-119.710;2023-03-05T07:34:33;101410.24;;;9.29;58.71
40570;BME280;26270;34.428;-119.710;2023-03-05T07:37:01;101409.02;;;9.22;59.10
40570;BME280;26270;34.428;-119.710;2023-03-05T07:39:29;101406.66;;;9.18;59.64
40570;BME280;26270;34.428;-119.710;2023-03-05T07:41:57;101410.90;;;9.33;59.38
40570;BME280;26270;34.428;-119.710;2023-03-05T07:44:26;101414.02;;;9.21;59.38
40570;BME280;26270;34.428;-119.710;2023-03-05T07:46:54;101419.58;;;9.19;59.70
40570;BME280;26270;34.428;-119.710;2023-03-05T07:49:22;101419.23;;;9.36;60.29
40570;BME280;26270;34.428;-119.710;2023-03-05T07:51:51;101417.80;;;9.55;59.93
40570;BME280;26270;34.428;-119.710;2023-03-05T07:54:19;101420.10;;;9.48;60.29
40570;BME280;26270;34.428;-119.710;2023-03-05T07:56:48;101418.47;;;9.26;59.37
40570;BME280;26270;34.428;-119.710;2023-03-05T07:59:16;101411.56;;;9.40;59.92
40570;BME280;26270;34.428;-119.710;2023-03-05T08:01:45;101411.54;;;9.60;59.92
40570;BME280;26270;34.428;-119.710;2023-03-05T08:04:13;101415.68;;;9.68;59.68
40570;BME280;26270;34.428;-119.710;2023-03-05T08:06:41;101419.80;;;9.79;58.70
40570;BME280;26270;34.428;-119.710;2023-03-05T08:09:10;101409.62;;;9.75;58.95
40570;BME280;26270;34.428;-119.710;2023-03-05T08:11:39;101408.36;;;9.80;59.24
40570;BME280;26270;34.428;-119.710;2023-03-05T08:14:08;101418.95;;;9.75;59.17
40570;BME280;26270;34.428;-119.710;2023-03-05T08:16:38;101412.16;;;9.95;59.23
40570;BME280;26270;34.428;-119.710;2023-03-05T08:19:06;101406.93;;;9.85;59.01
40570;BME280;26270;34.428;-119.710;2023-03-05T08:21:35;101421.67;;;9.88;58.46
40570;BME280;26270;34.428;-119.710;2023-03-05T08:24:06;101430.31;;;10.00;58.76
40570;BME280;26270;34.428;-119.710;2023-03-05T08:26:36;101433.52;;;9.89;59.23
40570;BME280;26270;34.428;-119.710;2023-03-05T08:29:05;101437.44;;;9.97;58.91
40570;BME280;26270;34.428;-119.710;2023-03-05T08:31:33;101444.92;;;9.92;58.88
40570;BME280;26270;34.428;-119.710;2023-03-05T08:34:03;101440.25;;;10.11;58.63
40570;BME280;26270;34.428;-119.710;2023-03-05T08:36:32;101447.18;;;9.99;59.03
40570;BME280;26270;34.428;-119.710;2023-03-05T08:39:00;101444.63;;;10.01;58.82
40570;BME280;26270;34.428;-119.710;2023-03-05T08:41:29;101449.42;;;10.02;58.78
40570;BME280;26270;34.428;-119.710;2023-03-05T08:43:57;101454.14;;;9.86;59.21
40570;BME280;26270;34.428;-119.710;2023-03-05T08:46:25;101448.70;;;10.07;59.32
40570;BME280;26270;34.428;-119.710;2023-03-05T08:48:54;101452.82;;;9.82;59.91
40570;BME280;26270;34.428;-119.710;2023-03-05T08:51:24;101453.82;;;9.90;60.30
40570;BME280;26270;34.428;-119.710;2023-03-05T08:53:54;101452.21;;;10.19;60.49
40570;BME280;26270;34.428;-119.710;2023-03-05T08:56:23;101456.69;;;10.20;59.63
40570;BME280;26270;34.428;-119.710;2023-03-05T08:58:51;101459.62;;;10.20;59.55
40570;BME280;26270;34.428;-119.710;2023-03-05T09:01:19;101456.22;;;10.07;59.95
40570;BME280;26270;34.428;-119.710;2023-03-05T09:03:47;101457.85;;;10.33;59.05
40570;BME280;26270;34.428;-119.710;2023-03-05T09:06:15;101455.52;;;10.37;58.98
40570;BME280;26270;34.428;-119.710;2023-03-05T09:08:43;101458.02;;;9.96;59.51
40570;BME280;26270;34.428;-119.710;2023-03-05T09:11:12;101452.79;;;10.18;59.67
40570;BME280;26270;34.428;-119.710;2023-03-05T09:13:41;101446.56;;;10.26;60.20
40570;BME280;26270;34.428;-119.710;2023-03-05T09:16:12;101438.73;;;10.42;58.79
40570;BME280;26270;34.428;-119.710;2023-03-05T09:18:40;101435.01;;;10.51;59.42
40570;BME280;26270;34.428;-119.710;2023-03-05T09:21:11;101440.34;;;10.56;59.23
40570;BME280;26270;34.428;-119.710;2023-03-05T09:23:40;101443.23;;;10.47;59.55
40570;BME280;26270;34.428;-119.710;2023-03-05T09:26:11;101435.41;;;10.52;59.72
40570;BME280;26270;34.428;-119.710;2023-03-05T09:28:41;101425.98;;;10.66;58.96
40570;BME280;26270;34.428;-119.710;2023-03-05T09:31:11;101427.39;;;10.43;59.76
40570;BME280;26270;34.428;-119.710;2023-03-05T09:33:40;101428.14;;;10.63;60.68
40570;BME280;26270;34.428;-119.710;2023-03-05T09:36:18;101422.93;;;10.83;60.64
40570;BME280;26270;34.428;-119.710;2023-03-05T09:38:47;101422.31;;;10.84;60.76
40570;BME280;26270;34.428;-119.710;2023-03-05T09:41:20;101426.77;;;10.77;60.84
40570;BME280;26270;34.428;-119.710;2023-03-05T09:44:00;101427.89;;;10.78;59.77
40570;BME280;26270;34.428;-119.710;2023-03-05T09:46:35;101419.33;;;10.78;60.63
40570;BME280;26270;34.428;-119.710;2023-03-05T09:49:14;101411.46;;;10.73;59.45
40570;BME280;26270;34.428;-119.710;2023-03-05T09:51:45;101411.35;;;10.78;59.57
40570;BME280;26270;34.428;-119.710;2023-03-05T09:54:19;101408.05;;;10.67;60.56
40570;BME280;26270;34.428;-119.710;2023-03-05T09:56:52;101405.49;;;10.75;60.77
40570;BME280;26270;34.428;-119.710;2023-03-05T09:59:28;101406.59;;;10.75;61.34
40570;BME280;26270;34.428;-119.710;2023-03-05T10:02:04;101406.17;;;10.71;61.67
40570;BME280;26270;34.428;-119.710;2023-03-05T10:04:42;101405.60;;;10.77;61.98
40570;BME280;26270;34.428;-119.710;2023-03-05T10:07:16;101411.31;;;10.80;63.07
40570;BME280;26270;34.428;-119.710;2023-03-05T10:09:53;101408.13;;;10.89;63.03
40570;BME280;26270;34.428;-119.710;2023-03-05T10:12:26;101403.64;;;11.06;64.25
40570;BME280;26270;34.428;-119.710;2023-03-05T10:15:00;101401.41;;;10.80;64.45
40570;BME280;26270;34.428;-119.710;2023-03-05T10:17:46;101403.92;;;10.79;64.91
40570;BME280;26270;34.428;-119.710;2023-03-05T10:20:40;101399.77;;;10.60;66.00
40570;BME280;26270;34.428;-119.710;2023-03-05T10:23:24;101390.76;;;10.72;65.60
40570;BME280;26270;34.428;-119.710;2023-03-05T10:26:01;101392.56;;;10.79;66.50
40570;BME280;26270;34.428;-119.710;2023-03-05T10:28:38;101383.24;;;10.67;67.17
40570;BME280;26270;34.428;-119.710;2023-03-05T10:31:21;101380.31;;;10.68;68.27
40570;BME280;26270;34.428;-119.710;2023-03-05T10:34:03;101380.75;;;10.68;69.70
40570;BME280;26270;34.428;-119.710;2023-03-05T10:36:46;101378.16;;;10.56;70.24
40570;BME280;26270;34.428;-119.710;2023-03-05T10:39:40;101372.59;;;10.36;71.30
40570;BME280;26270;34.428;-119.710;2023-03-05T10:42:19;101378.82;;;10.51;71.20
40570;BME280;26270;34.428;-119.710;2023-03-05T10:44:53;101374.85;;;10.71;71.76
40570;BME280;26270;34.428;-119.710;2023-03-05T10:47:25;101369.25;;;10.83;71.58
40570;BME280;26270;34.428;-119.710;2023-03-05T10:49:57;101372.35;;;10.77;71.99
40570;BME280;26270;34.428;-119.710;2023-03-05T10:52:30;101376.76;;;10.91;72.34
40570;BME280;26270;34.428;-119.710;2023-03-05T10:55:00;101373.84;;;10.89;73.00
40570;BME280;26270;34.428;-119.710;2023-03-05T10:57:30;101366.56;;;10.77;74.26
40570;BME280;26270;34.428;-119.710;2023-03-05T11:00:10;101370.03;;;10.81;75.84
40570;BME280;26270;34.428;-119.710;2023-03-05T11:02:55;101370.43;;;10.90;75.53
40570;BME280;26270;34.428;-119.710;2023-03-05T11:06:00;101374.22;;;10.93;75.62
40570;BME280;26270;34.428;-119.710;2023-03-05T11:08:31;101380.88;;;11.06;75.84
40570;BME280;26270;34.428;-119.710;2023-03-05T11:11:14;101378.33;;;11.09;75.62
40570;BME280;26270;34.428;-119.710;2023-03-05T11:13:53;101378.37;;;11.11;75.94
40570;BME280;26270;34.428;-119.710;2023-03-05T11:16:24;101366.91;;;11.01;74.31
40570;BME280;26270;34.428;-119.710;2023-03-05T11:19:16;101358.56;;;11.07;74.68
40570;BME280;26270;34.428;-119.710;2023-03-05T11:21:46;101365.22;;;10.85;74.06
40570;BME280;26270;34.428;-119.710;2023-03-05T11:24:30;101352.03;;;10.82;75.68
40570;BME280;26270;34.428;-119.710;2023-03-05T11:26:59;101339.31;;;10.88;76.08
40570;BME280;26270;34.428;-119.710;2023-03-05T11:29:30;101345.03;;;10.99;76.23
40570;BME280;26270;34.428;-119.710;2023-03-05T11:32:15;101349.20;;;11.19;76.03
40570;BME280;26270;34.428;-119.710;2023-03-05T11:34:44;101346.55;;;11.11;76.36
40570;BME280;26270;34.428;-119.710;2023-03-05T11:37:23;101345.39;;;11.31;76.83
40570;BME280;26270;34.428;-119.710;2023-03-05T11:40:15;101350.19;;;11.04;77.82
40570;BME280;26270;34.428;-119.710;2023-03-05T11:42:44;101342.33;;;11.36;76.92
40570;BME280;26270;34.428;-119.710;2023-03-05T11:45:16;101362.49;;;11.21;75.63
40570;BME280;26270;34.428;-119.710;2023-03-05T11:47:48;101399.51;;;10.97;76.55
40570;BME280;26270;34.428;-119.710;2023-03-05T11:50:22;101405.17;;;11.14;75.25
40570;BME280;26270;34.428;-119.710;2023-03-05T11:52:53;101387.16;;;11.19;76.66
40570;BME280;26270;34.428;-119.710;2023-03-05T11:55:26;101385.09;;;11.40;76.86
40570;BME280;26270;34.428;-119.710;2023-03-05T11:58:03;101391.34;;;11.27;76.70
40570;BME280;26270;34.428;-119.710;2023-03-05T12:00:40;101394.06;;;11.30;76.62
40570;BME280;26270;34.428;-119.710;2023-03-05T12:03:14;101400.75;;;11.27;76.70
40570;BME280;26270;34.428;-119.710;2023-03-05T12:05:46;101408.80;;;11.33;77.14
40570;BME280;26270;34.428;-119.710;2023-03-05T12:08:20;101403.43;;;11.14;78.31
40570;BME280;26270;34.428;-119.710;2023-03-05T12:10:49;101404.34;;;11.18;78.67
40570;BME280;26270;34.428;-119.710;2023-03-05T12:13:25;101396.48;;;11.13;78.34
40570;BME280;26270;34.428;-119.710;2023-03-05T12:16:06;101392.64;;;11.23;78.59
40570;BME280;26270;34.428;-119.710;2023-03-05T12:18:45;101383.11;;;11.47;77.93
40570;BME280;26270;34.428;-119.710;2023-03-05T12:21:26;101375.23;;;11.57;77.65
40570;BME280;26270;34.428;-119.710;2023-03-05T12:23:58;101366.96;;;11.58;77.58
40570;BME280;26270;34.428;-119.710;2023-03-05T12:27:33;101375.99;;;11.56;77.43
40570;BME280;26270;34.428;-119.710;2023-03-05T12:30:03;101368.33;;;11.50;77.77
40570;BME280;26270;34.428;-119.710;2023-03-05T12:32:52;101366.71;;;11.13;79.25
40570;BME280;26270;34.428;-119.710;2023-03-05T12:35:27;101365.69;;;11.47;79.31
40570;BME280;26270;34.428;-119.710;2023-03-05T12:38:00;101363.18;;;11.32;78.88
40570;BME280;26270;34.428;-119.710;2023-03-05T12:40:30;101359.22;;;11.49;78.61